Time;durP1;ratioP1;P1;durP2;ratioP2;P2;SDS_P1;SDS_P2;PMS_P1;PMS_P2;Temp;Humidity;BMP_temperature;BMP_pressure;BME280_temperature;BME280_humidity;BME280_pressure;Samples;Min_cycle;Max_cycle;Signal;HPM_P1;HPM_P2
2022/04/27 00:02:12;;;;;;;26.55;24.75;;;9.50;91.30;;;;;;5096159;28;20195;-73
2022/04/27 00:04:39;;;;;;;27.95;26.13;;;9.50;91.10;;;;;;5096253;28;20306;-73
2022/04/27 00:07:07;;;;;;;28.40;26.50;;;9.40;91.10;;;;;;5095949;28;20250;-73
2022/04/27 00:09:34;;;;;;;28.60;26.60;;;9.40;91.00;;;;;;5095416;28;20313;-73
2022/04/27 00:12:01;;;;;;;30.48;28.25;;;9.40;90.80;;;;;;5095838;28;20669;-73
2022/04/27 00:14:31;;;;;;;30.30;28.02;;;9.50;91.00;;;;;;5095944;28;20215;-73
2022/04/27 00:16:59;;;;;;;30.40;28.30;;;9.50;91.10;;;;;;5095801;28;20281;-73
2022/04/27 00:19:27;;;;;;;30.88;28.77;;;9.40;90.90;;;;;;5095474;28;20232;-73
2022/04/27 00:21:54;;;;;;;29.35;27.33;;;9.50;90.70;;;;;;5095507;28;20195;-73
2022/04/27 00:24:21;;;;;;;29.95;27.92;;;9.50;90.30;;;;;;5095193;28;20227;-73
2022/04/27 00:26:48;;;;;;;32.65;30.35;;;9.50;90.30;;;;;;5095426;28;20221;-73
2022/04/27 00:29:15;;;;;;;30.23;28.17;;;9.50;90.90;;;;;;5094930;28;20192;-73
2022/04/27 00:31:43;;;;;;;30.23;28.20;;;9.50;90.60;;;;;;5095314;28;20743;-73
2022/04/27 00:34:10;;;;;;;30.60;28.50;;;9.60;90.40;;;;;;5095426;28;20224;-73
2022/04/27 00:36:37;;;;;;;31.60;29.40;;;9.60;90.10;;;;;;5095181;28;20222;-74
2022/04/27 00:39:04;;;;;;;30.80;28.80;;;9.60;90.20;;;;;;5094998;28;20207;-73
2022/04/27 00:41:31;;;;;;;31.98;29.77;;;9.60;90.20;;;;;;5094879;28;20218;-74
2022/04/27 00:43:58;;;;;;;31.70;29.50;;;9.60;90.30;;;;;;5095352;28;20717;-74
2022/04/27 00:46:26;;;;;;;33.38;30.98;;;9.60;89.90;;;;;;5095189;28;20510;-73
2022/04/27 00:48:54;;;;;;;34.67;32.30;;;9.50;89.60;;;;;;5094973;28;20264;-74
2022/04/27 00:51:23;;;;;;;34.50;31.90;;;9.50;89.70;;;;;;5093361;28;20946;-73
2022/04/27 00:53:51;;;;;;;33.63;31.23;;;9.50;89.60;;;;;;5095018;28;20894;-73
2022/04/27 00:56:21;;;;;;;33.53;31.23;;;9.60;89.70;;;;;;5095001;28;20220;-73
2022/04/27 00:58:48;;;;;;;34.75;32.35;;;9.70;89.20;;;;;;5095230;28;20200;-74
2022/04/27 01:01:16;;;;;;;33.95;31.58;;;9.70;89.10;;;;;;5094504;28;20210;-73
2022/04/27 01:03:43;;;;;;;34.90;32.40;;;9.60;89.20;;;;;;5094636;28;20707;-73
2022/04/27 01:06:12;;;;;;;33.88;31.48;;;9.60;89.50;;;;;;5094738;28;20472;-73
2022/04/27 01:08:39;;;;;;;34.22;31.70;;;9.60;89.50;;;;;;5094884;28;20251;-73
2022/04/27 01:11:07;;;;;;;33.70;31.30;;;9.60;89.30;;;;;;5094552;28;20231;-73
2022/04/27 01:13:34;;;;;;;33.90;31.50;;;9.70;89.30;;;;;;5094869;28;20555;-73
2022/04/27 01:16:01;;;;;;;33.28;30.98;;;9.60;89.10;;;;;;5094587;28;20233;-73
2022/04/27 01:18:29;;;;;;;33.25;30.95;;;9.60;89.40;;;;;;5094504;28;20199;-73
2022/04/27 01:20:58;;;;;;;34.53;32.13;;;9.60;89.40;;;;;;5094111;28;20203;-73
2022/04/27 01:23:25;;;;;;;34.90;32.30;;;9.60;89.50;;;;;;5094139;28;20539;-74
2022/04/27 01:25:54;;;;;;;33.30;31.00;;;9.60;89.50;;;;;;5094261;28;20214;-74
2022/04/27 01:28:23;;;;;;;32.80;30.60;;;9.70;89.70;;;;;;5094257;28;20696;-74
2022/04/27 01:30:57;;;;;;;34.40;32.00;;;9.70;89.30;;;;;;5093933;28;20464;-74
2022/04/27 01:33:24;;;;;;;33.78;31.45;;;9.70;89.70;;;;;;5094326;28;20704;-74
2022/04/27 01:35:51;;;;;;;36.30;33.50;;;9.70;89.80;;;;;;5094216;28;20589;-73
2022/04/27 01:38:20;;;;;;;35.05;32.38;;;9.70;89.10;;;;;;5094052;28;20456;-73
2022/04/27 01:40:46;;;;;;;34.70;32.10;;;9.60;89.30;;;;;;5093837;28;20198;-73
2022/04/27 01:43:15;;;;;;;35.20;32.60;;;9.60;89.70;;;;;;5094095;28;20478;-73
2022/04/27 01:45:43;;;;;;;34.70;32.20;;;9.50;90.20;;;;;;5094118;28;20460;-73
2022/04/27 01:48:11;;;;;;;34.97;32.53;;;9.60;89.70;;;;;;5093983;28;20472;-73
2022/04/27 01:50:38;;;;;;;33.90;31.50;;;9.50;89.90;;;;;;5093788;28;20222;-73
2022/04/27 01:55:52;;;;;;;35.08;32.55;;;9.40;90.40;;;;;;5093885;28;20222;-73
2022/04/27 01:58:19;;;;;;;35.85;33.15;;;9.30;90.90;;;;;;5093815;28;20657;-74
2022/04/27 02:00:47;;;;;;;37.38;34.42;;;9.30;91.40;;;;;;5093421;28;20229;-73
2022/04/27 02:03:14;;;;;;;37.45;34.65;;;9.30;91.00;;;;;;5093503;28;20247;-73
2022/04/27 02:05:41;;;;;;;39.25;36.08;;;9.30;91.00;;;;;;5093713;28;20192;-73
2022/04/27 02:08:08;;;;;;;38.00;35.08;;;9.30;91.10;;;;;;5093645;28;20665;-74
2022/04/27 02:10:35;;;;;;;37.33;34.00;;;9.40;91.20;;;;;;5093026;28;20207;-73
2022/04/27 02:13:04;;;;;;;37.60;34.47;;;9.30;91.40;;;;;;5093516;28;20222;-74
2022/04/27 02:15:31;;;;;;;39.60;36.45;;;9.40;91.20;;;;;;5093394;28;20212;-74
2022/04/27 02:17:58;;;;;;;42.95;39.17;;;9.50;90.80;;;;;;5093587;28;20217;-73
2022/04/27 02:20:25;;;;;;;44.53;40.92;;;9.50;90.90;;;;;;5092740;28;20206;-74
2022/04/27 02:22:52;;;;;;;43.17;39.47;;;9.60;90.70;;;;;;5093307;28;20196;-73
2022/04/27 02:25:20;;;;;;;40.50;37.30;;;9.60;90.90;;;;;;5093012;28;20287;-73
2022/04/27 02:27:49;;;;;;;39.08;35.80;;;9.50;90.90;;;;;;5093225;28;20630;-74
2022/04/27 02:30:19;;;;;;;41.55;38.05;;;9.40;91.70;;;;;;5092542;28;20204;-74
2022/04/27 02:32:46;;;;;;;42.42;39.03;;;9.30;92.20;;;;;;5093089;28;20199;-73
2022/04/27 02:35:15;;;;;;;40.97;37.60;;;9.30;92.40;;;;;;5093163;28;20195;-73
2022/04/27 02:37:42;;;;;;;41.80;38.30;;;9.40;92.30;;;;;;5093169;28;20457;-73
2022/04/27 02:40:11;;;;;;;41.70;38.17;;;9.40;92.30;;;;;;5092592;28;20290;-73
2022/04/27 02:42:38;;;;;;;39.93;36.60;;;9.60;92.00;;;;;;5093048;28;20618;-73
2022/04/27 02:45:05;;;;;;;40.47;37.20;;;9.60;91.60;;;;;;5092784;28;21010;-73
2022/04/27 02:47:34;;;;;;;41.17;37.85;;;9.60;91.50;;;;;;5093006;28;20206;-73
2022/04/27 02:52:47;;;;;;;40.85;37.45;;;9.70;91.30;;;;;;5092980;28;20206;-73
2022/04/27 02:55:14;;;;;;;42.13;38.83;;;9.60;91.60;;;;;;5092887;28;20286;-73
2022/04/27 02:57:41;;;;;;;40.40;36.97;;;9.70;91.50;;;;;;5092965;28;20219;-73
2022/04/27 03:00:09;;;;;;;40.60;37.25;;;9.70;91.50;;;;;;5092381;28;20191;-73
2022/04/27 03:02:39;;;;;;;40.75;37.15;;;9.60;91.40;;;;;;5092719;28;20218;-74
2022/04/27 03:05:09;;;;;;;40.72;37.22;;;9.70;91.00;;;;;;5092677;28;20199;-73
2022/04/27 03:07:36;;;;;;;40.63;36.85;;;9.60;91.00;;;;;;5092711;28;20196;-74
2022/04/27 03:10:04;;;;;;;39.17;35.97;;;9.50;91.20;;;;;;5092034;28;20202;-74
2022/04/27 03:12:31;;;;;;;39.45;36.22;;;9.50;91.40;;;;;;5092789;28;20568;-73
2022/04/27 03:14:57;;;;;;;39.03;35.88;;;9.50;91.30;;;;;;5091706;28;20215;-73
2022/04/27 03:17:24;;;;;;;37.63;34.47;;;9.50;91.80;;;;;;5092491;28;20594;-74
2022/04/27 03:19:53;;;;;;;38.80;35.72;;;9.50;91.40;;;;;;5091989;28;20199;-74
2022/04/27 03:22:19;;;;;;;39.15;36.05;;;9.50;91.40;;;;;;5092583;28;20196;-73
2022/04/27 03:24:46;;;;;;;39.38;36.28;;;9.50;91.20;;;;;;5091783;28;20309;-73
2022/04/27 03:27:13;;;;;;;36.87;33.93;;;9.50;91.30;;;;;;5092041;28;20287;-74
2022/04/27 03:29:40;;;;;;;36.10;33.30;;;9.50;91.50;;;;;;5091471;28;20461;-74
2022/04/27 03:32:09;;;;;;;37.55;34.45;;;9.50;91.50;;;;;;5092304;28;20203;-74
2022/04/27 03:34:37;;;;;;;36.95;33.90;;;9.50;91.50;;;;;;5092174;28;20219;-74
2022/04/27 03:37:05;;;;;;;36.65;33.83;;;9.40;91.50;;;;;;5092063;28;20579;-74
2022/04/27 03:39:32;;;;;;;39.50;36.05;;;9.30;92.30;;;;;;5091778;28;20196;-74
2022/04/27 03:41:59;;;;;;;37.85;34.75;;;9.20;92.80;;;;;;5092198;28;20568;-74
2022/04/27 03:44:26;;;;;;;38.65;35.45;;;9.30;92.80;;;;;;5092004;28;20583;-73
2022/04/27 03:46:53;;;;;;;39.00;35.85;;;9.30;92.90;;;;;;5092172;28;20192;-73
2022/04/27 03:49:19;;;;;;;37.88;34.80;;;9.30;92.90;;;;;;5091461;28;20207;-74
2022/04/27 03:51:46;;;;;;;37.65;34.40;;;9.20;93.00;;;;;;5092119;28;20548;-74
2022/04/27 03:54:14;;;;;;;38.58;35.50;;;9.30;93.00;;;;;;5092120;28;20215;-73
2022/04/27 03:56:41;;;;;;;39.08;35.83;;;9.20;93.00;;;;;;5092055;28;20311;-74
2022/04/27 03:59:08;;;;;;;36.00;33.20;;;9.30;93.00;;;;;;5091713;28;20202;-73
2022/04/27 04:01:35;;;;;;;38.97;35.72;;;9.30;92.90;;;;;;5092101;28;20322;-74
2022/04/27 04:04:02;;;;;;;39.65;36.45;;;9.20;93.70;;;;;;5091946;28;20307;-74
2022/04/27 04:06:29;;;;;;;37.65;34.67;;;9.30;93.30;;;;;;5092237;28;20283;-74
2022/04/27 04:08:56;;;;;;;38.42;35.25;;;9.40;93.10;;;;;;5091920;28;20202;-74
2022/04/27 04:11:24;;;;;;;35.75;32.83;;;9.40;93.00;;;;;;5091250;28;20196;-74
2022/04/27 04:13:51;;;;;;;36.40;33.40;;;9.50;92.80;;;;;;5091953;28;20298;-74
2022/04/27 04:16:18;;;;;;;37.10;34.00;;;9.50;92.80;;;;;;5092003;28;20482;-74
2022/04/27 04:18:44;;;;;;;37.28;34.25;;;9.40;92.50;;;;;;5091760;28;20565;-74
2022/04/27 04:21:11;;;;;;;37.90;34.72;;;9.50;92.50;;;;;;5091371;28;20214;-74
2022/04/27 04:23:38;;;;;;;38.53;35.55;;;9.60;92.30;;;;;;5091323;28;20216;-74
2022/04/27 04:28:51;;;;;;;39.20;35.90;;;9.70;92.30;;;;;;5095534;28;20672;-74
2022/04/27 04:31:18;;;;;;;39.33;35.77;;;9.70;92.00;;;;;;5095059;28;20287;-74
2022/04/27 04:33:45;;;;;;;41.08;37.72;;;9.80;91.90;;;;;;5095693;28;20473;-74
2022/04/27 04:36:12;;;;;;;41.43;37.97;;;9.90;91.70;;;;;;5095412;28;20621;-74
2022/04/27 04:38:39;;;;;;;38.70;35.50;;;9.80;91.70;;;;;;5095300;28;20487;-74
2022/04/27 04:41:06;;;;;;;38.40;35.20;;;9.90;92.20;;;;;;5094928;28;20449;-74
2022/04/27 04:43:33;;;;;;;37.87;34.63;;;9.90;91.80;;;;;;5095416;28;20827;-74
2022/04/27 04:46:02;;;;;;;41.67;38.27;;;10.00;91.60;;;;;;5095355;28;20460;-74
2022/04/27 04:48:29;;;;;;;38.30;35.17;;;10.00;91.10;;;;;;5095139;28;20453;-73
2022/04/27 04:50:55;;;;;;;36.73;33.73;;;10.00;90.80;;;;;;5094533;28;20532;-74
2022/04/27 04:53:22;;;;;;;40.73;37.13;;;10.00;92.00;;;;;;5095293;28;20560;-74
2022/04/27 04:55:49;;;;;;;37.63;34.53;;;10.00;92.70;;;;;;5095079;28;20454;-74
2022/04/27 04:58:16;;;;;;;40.93;37.63;;;10.00;92.10;;;;;;5095097;28;20560;-74
2022/04/27 05:00:45;;;;;;;39.60;36.50;;;10.10;91.40;;;;;;5094575;28;20457;-74
2022/04/27 05:03:13;;;;;;;37.80;34.80;;;10.10;90.90;;;;;;5094890;28;20480;-74
2022/04/27 05:05:41;;;;;;;39.03;36.00;;;10.10;90.70;;;;;;5094841;28;20453;-74
2022/04/27 05:08:11;;;;;;;38.50;35.50;;;10.10;90.60;;;;;;5095023;28;20935;-74
2022/04/27 05:10:38;;;;;;;40.30;37.10;;;10.00;90.60;;;;;;5094390;28;20795;-74
2022/04/27 05:13:05;;;;;;;39.80;36.90;;;10.00;90.90;;;;;;5094755;28;20526;-74
2022/04/27 05:15:32;;;;;;;39.23;36.23;;;10.00;90.60;;;;;;5094611;28;20456;-74
2022/04/27 05:17:59;;;;;;;40.67;37.43;;;10.00;90.60;;;;;;5094494;28;20492;-74
2022/04/27 05:20:27;;;;;;;38.37;35.30;;;10.10;90.60;;;;;;5093990;28;20532;-74
2022/04/27 05:22:54;;;;;;;38.90;35.80;;;10.10;90.70;;;;;;5094681;28;20463;-74
2022/04/27 05:25:21;;;;;;;39.30;36.07;;;10.20;90.50;;;;;;5094178;28;20578;-74
2022/04/27 05:27:48;;;;;;;39.07;36.13;;;10.20;90.30;;;;;;5094463;28;20453;-74
2022/04/27 05:32:59;;;;;;;39.00;35.70;;;10.30;90.30;;;;;;5094628;28;20436;-73
2022/04/27 05:35:28;;;;;;;38.97;36.00;;;10.30;90.30;;;;;;5094343;28;20996;-73
2022/04/27 05:37:55;;;;;;;39.57;36.27;;;10.30;90.20;;;;;;5093626;28;20470;-73
2022/04/27 05:40:21;;;;;;;39.47;36.37;;;10.30;90.50;;;;;;5093887;28;20454;-73
2022/04/27 05:42:48;;;;;;;37.77;34.67;;;10.40;90.20;;;;;;5094438;28;20453;-73
2022/04/27 05:45:15;;;;;;;40.23;36.93;;;10.50;90.00;;;;;;5094353;28;20506;-73
2022/04/27 05:47:42;;;;;;;38.40;35.50;;;10.40;89.80;;;;;;5094295;28;20541;-74
2022/04/27 05:50:10;;;;;;;41.03;38.03;;;10.40;89.80;;;;;;5093346;28;20935;-74
2022/04/27 05:52:56;;;;;;;40.00;36.60;;;10.40;90.00;;;;;;5094177;28;20961;-74
2022/04/27 05:55:23;;;;;;;38.50;35.50;;;10.50;89.80;;;;;;5092988;28;20453;-73
2022/04/27 05:57:50;;;;;;;42.40;38.27;;;10.50;89.60;;;;;;5093727;28;20930;-74
2022/04/27 06:00:18;;;;;;;40.10;36.73;;;10.50;89.60;;;;;;5093194;28;20465;-74
2022/04/27 06:02:45;;;;;;;41.03;37.70;;;10.60;89.40;;;;;;5093688;28;20454;-73
2022/04/27 06:05:13;;;;;;;39.33;36.17;;;10.70;89.00;;;;;;5094029;28;20857;-74
2022/04/27 06:07:40;;;;;;;41.17;37.87;;;10.60;88.80;;;;;;5093720;28;20441;-73
2022/04/27 06:10:10;;;;;;;41.63;38.27;;;10.60;88.70;;;;;;5092939;28;20460;-74
2022/04/27 06:12:46;;;;;;;41.57;38.27;;;10.60;88.30;;;;;;5093855;28;20457;-74
2022/04/27 06:15:14;;;;;;;42.37;39.13;;;10.60;88.10;;;;;;5093737;28;20475;-73
2022/04/27 06:17:41;;;;;;;42.47;39.10;;;10.60;88.00;;;;;;5093519;28;20565;-74
2022/04/27 06:20:10;;;;;;;41.30;38.10;;;10.70;87.80;;;;;;5092698;28;20951;-74
2022/04/27 06:22:37;;;;;;;39.60;36.50;;;10.60;87.90;;;;;;5093429;28;20461;-74
2022/04/27 06:25:05;;;;;;;41.07;37.77;;;10.50;88.40;;;;;;5093005;28;20560;-73
2022/04/27 06:27:33;;;;;;;39.60;36.23;;;10.40;88.80;;;;;;5093312;28;20507;-74
2022/04/27 06:30:00;;;;;;;42.00;38.60;;;10.40;89.00;;;;;;5092883;28;20450;-74
2022/04/27 06:32:30;;;;;;;40.43;37.23;;;10.60;88.40;;;;;;5093048;28;20492;-73
2022/04/27 06:34:58;;;;;;;41.70;38.50;;;10.70;88.10;;;;;;5093247;28;20495;-74
2022/04/27 06:37:26;;;;;;;41.70;38.63;;;10.70;87.90;;;;;;5092994;28;20477;-74
2022/04/27 06:39:53;;;;;;;37.87;35.00;;;10.70;88.00;;;;;;5092631;28;20453;-73
2022/04/27 06:42:20;;;;;;;40.70;37.47;;;10.60;88.40;;;;;;5093033;28;20445;-73
2022/04/27 06:44:49;;;;;;;39.70;36.70;;;10.60;88.70;;;;;;5092998;28;20986;-73
2022/04/27 06:47:16;;;;;;;39.23;36.03;;;10.80;88.10;;;;;;5092994;28;20449;-73
2022/04/27 06:49:43;;;;;;;41.57;38.33;;;10.90;87.60;;;;;;5091547;28;20586;-73
2022/04/27 06:52:10;;;;;;;38.03;34.97;;;10.90;87.50;;;;;;5093040;28;20454;-73
2022/04/27 06:54:36;;;;;;;37.77;34.90;;;11.00;87.00;;;;;;5092975;28;20562;-74
2022/04/27 06:57:04;;;;;;;38.30;35.40;;;10.70;87.50;;;;;;5093047;28;20473;-74
2022/04/27 06:59:31;;;;;;;39.93;37.03;;;10.70;88.00;;;;;;5092288;28;20544;-74
2022/04/27 07:01:59;;;;;;;37.50;34.77;;;10.80;88.20;;;;;;5092528;28;20449;-74
2022/04/27 07:04:26;;;;;;;37.43;34.50;;;10.70;87.70;;;;;;5092525;28;20484;-74
2022/04/27 07:06:54;;;;;;;39.80;36.90;;;10.80;87.70;;;;;;5092605;28;20974;-74
2022/04/27 07:09:22;;;;;;;38.90;36.00;;;11.00;87.10;;;;;;5092186;28;20536;-74
2022/04/27 07:11:49;;;;;;;37.90;35.00;;;10.60;87.60;;;;;;5092737;28;20445;-74
2022/04/27 07:14:16;;;;;;;40.10;37.23;;;10.60;88.20;;;;;;5092628;28;20545;-74
2022/04/27 07:16:43;;;;;;;38.63;35.77;;;10.70;87.50;;;;;;5092264;28;20458;-74
2022/04/27 07:19:12;;;;;;;36.40;33.70;;;10.60;87.60;;;;;;5091986;28;20445;-74
2022/04/27 07:21:39;;;;;;;38.20;35.40;;;10.60;87.90;;;;;;5092481;28;20488;-74
2022/04/27 07:24:07;;;;;;;38.20;35.33;;;10.60;88.00;;;;;;5092123;28;20474;-73
2022/04/27 07:26:34;;;;;;;38.23;35.43;;;10.70;87.90;;;;;;5092232;28;20573;-73
2022/04/27 07:29:01;;;;;;;39.23;36.20;;;10.80;87.40;;;;;;5091867;28;20991;-74
2022/04/27 07:31:28;;;;;;;36.97;33.90;;;10.70;87.60;;;;;;5091882;28;20541;-73
2022/04/27 07:33:55;;;;;;;35.20;32.57;;;10.80;87.90;;;;;;5092342;28;20834;-74
2022/04/27 07:36:23;;;;;;;37.73;34.43;;;11.00;86.60;;;;;;5092397;28;20987;-74
2022/04/27 07:38:50;;;;;;;36.27;33.17;;;11.10;85.40;;;;;;5092153;28;20509;-73
2022/04/27 07:41:17;;;;;;;35.97;33.33;;;11.10;86.10;;;;;;5091649;28;20453;-74
2022/04/27 07:43:44;;;;;;;34.90;32.30;;;11.20;85.60;;;;;;5092049;28;20563;-74
2022/04/27 07:46:11;;;;;;;37.33;34.23;;;11.30;84.90;;;;;;5091944;28;20454;-74
2022/04/27 07:48:38;;;;;;;33.33;30.90;;;11.50;84.40;;;;;;5092096;28;20449;-74
2022/04/27 07:51:06;;;;;;;38.13;35.43;;;11.90;82.60;;;;;;5091381;28;20826;-74
2022/04/27 07:53:36;;;;;;;35.43;32.47;;;12.20;81.10;;;;;;5092199;28;20473;-74
2022/04/27 07:56:04;;;;;;;35.30;32.30;;;12.20;80.70;;;;;;5092013;28;20457;-74
2022/04/27 07:58:32;;;;;;;36.07;33.47;;;12.40;80.50;;;;;;5091934;28;20477;-74
2022/04/27 08:01:00;;;;;;;35.13;32.53;;;12.40;79.60;;;;;;5092981;28;20461;-74
2022/04/27 08:03:27;;;;;;;35.17;32.40;;;12.70;79.10;;;;;;5096184;28;20473;-74
2022/04/27 08:05:54;;;;;;;34.70;32.20;;;12.80;78.50;;;;;;5096306;28;20454;-74
2022/04/27 08:08:21;;;;;;;35.30;32.70;;;13.00;77.70;;;;;;5096132;28;20541;-74
2022/04/27 08:10:49;;;;;;;36.13;33.53;;;13.10;77.80;;;;;;5095248;28;20446;-74
2022/04/27 08:13:16;;;;;;;35.80;33.30;;;13.40;77.30;;;;;;5096103;28;20998;-74
2022/04/27 08:15:44;;;;;;;36.57;33.87;;;13.80;75.90;;;;;;5096017;28;20456;-74
2022/04/27 08:18:11;;;;;;;34.50;32.03;;;13.70;75.20;;;;;;5095918;28;20515;-74
2022/04/27 08:23:24;;;;;;;34.63;32.13;;;13.70;75.50;;;;;;5095349;28;21043;-74
2022/04/27 08:25:52;;;;;;;34.63;32.13;;;13.90;75.90;;;;;;5095656;28;20454;-74
2022/04/27 08:28:19;;;;;;;34.13;31.93;;;14.10;73.50;;;;;;5095572;28;20453;-74
2022/04/27 08:30:48;;;;;;;33.90;31.60;;;13.90;73.90;;;;;;5094977;28;20941;-74
2022/04/27 08:33:16;;;;;;;35.50;33.20;;;13.90;73.70;;;;;;5095482;28;20469;-74
2022/04/27 08:35:44;;;;;;;35.17;32.77;;;14.10;73.30;;;;;;5095517;28;20450;-74
2022/04/27 08:38:11;;;;;;;34.10;31.80;;;14.30;72.70;;;;;;5095237;28;20473;-74
2022/04/27 08:40:40;;;;;;;35.73;33.23;;;14.00;72.90;;;;;;5094868;28;20934;-75
2022/04/27 08:43:12;;;;;;;35.10;32.50;;;13.90;73.50;;;;;;5095242;28;20469;-74
2022/04/27 08:45:41;;;;;;;36.10;33.40;;;14.00;73.30;;;;;;5095412;28;20458;-74
2022/04/27 08:48:08;;;;;;;35.07;32.77;;;14.30;71.60;;;;;;5095159;28;20927;-74
2022/04/27 08:50:36;;;;;;;36.23;33.47;;;14.50;70.60;;;;;;5094668;28;20457;-74
2022/04/27 08:53:03;;;;;;;35.33;33.03;;;14.70;70.50;;;;;;5095221;28;20928;-74
2022/04/27 08:55:30;;;;;;;34.53;32.07;;;15.20;69.60;;;;;;5095037;28;20943;-74
2022/04/27 08:58:11;;;;;;;34.03;31.73;;;15.70;68.00;;;;;;5095028;28;20488;-74
2022/04/27 09:00:39;;;;;;;34.50;32.20;;;15.80;67.50;;;;;;5094649;28;20540;-75
2022/04/27 09:03:25;;;;;;;35.30;32.67;;;16.00;66.40;;;;;;5094971;28;20889;-75
2022/04/27 09:05:53;;;;;;;32.77;30.57;;;16.10;65.30;;;;;;5094953;28;20450;-75
2022/04/27 09:08:21;;;;;;;34.73;32.43;;;15.90;64.80;;;;;;5095080;28;20445;-74
2022/04/27 09:10:49;;;;;;;33.77;31.17;;;15.90;65.40;;;;;;5094350;28;20445;-75
2022/04/27 09:13:17;;;;;;;35.70;33.30;;;16.20;64.80;;;;;;5093852;28;20474;-75
2022/04/27 09:15:44;;;;;;;35.37;32.87;;;16.30;64.80;;;;;;5094529;28;20457;-75
2022/04/27 09:21:02;;;;;;;33.93;31.73;;;16.50;63.80;;;;;;5094316;28;20479;-75
2022/04/27 09:23:36;;;;;;;33.67;31.47;;;16.70;62.70;;;;;;5094019;28;20474;-74
2022/04/27 09:26:15;;;;;;;33.03;30.93;;;16.60;62.20;;;;;;5094609;28;20461;-75
2022/04/27 09:28:47;;;;;;;33.10;30.90;;;16.50;61.60;;;;;;5094276;28;20460;-74
2022/04/27 09:31:26;;;;;;;36.23;33.90;;;16.20;62.20;;;;;;5093949;28;20487;-75
2022/04/27 09:33:59;;;;;;;38.23;35.30;;;16.30;63.30;;;;;;5094330;28;20465;-75
2022/04/27 09:36:26;;;;;;;33.50;31.20;;;16.20;62.70;;;;;;5094446;28;20450;-75
2022/04/27 09:38:54;;;;;;;33.37;31.27;;;16.20;62.70;;;;;;5094100;28;20838;-75
2022/04/27 09:41:42;;;;;;;31.53;29.53;;;16.20;62.90;;;;;;5093618;28;20945;-74
2022/04/27 09:44:26;;;;;;;32.23;30.13;;;16.60;62.50;;;;;;5094025;28;20556;-74
2022/04/27 09:46:53;;;;;;;32.93;30.50;;;16.70;61.60;;;;;;5094110;28;20460;-75
2022/04/27 09:49:20;;;;;;;31.60;29.63;;;16.50;61.90;;;;;;5093603;28;20872;-75
2022/04/27 09:51:48;;;;;;;33.97;31.67;;;16.10;63.10;;;;;;5093859;28;20454;-75
2022/04/27 09:54:19;;;;;;;31.00;29.03;;;16.10;63.50;;;;;;5094022;28;20509;-75
2022/04/27 09:56:51;;;;;;;30.60;28.60;;;16.40;62.60;;;;;;5093899;28;20464;-74
2022/04/27 09:59:21;;;;;;;30.90;28.90;;;16.40;63.10;;;;;;5093303;28;20833;-75
2022/04/27 10:01:50;;;;;;;28.30;26.50;;;16.70;62.10;;;;;;5093910;28;20442;-75
2022/04/27 10:04:21;;;;;;;29.33;27.63;;;16.90;59.60;;;;;;5093968;28;20469;-74
2022/04/27 10:06:49;;;;;;;27.33;25.73;;;16.80;59.50;;;;;;5093894;28;20477;-75
2022/04/27 10:09:16;;;;;;;27.73;26.13;;;16.80;59.40;;;;;;5093117;28;20450;-75
2022/04/27 10:11:44;;;;;;;26.93;25.37;;;16.80;58.90;;;;;;5093577;28;20548;-75
2022/04/27 10:14:12;;;;;;;27.97;26.30;;;16.70;58.90;;;;;;5093668;28;20967;-75
2022/04/27 10:16:40;;;;;;;28.30;26.50;;;16.40;59.80;;;;;;5093796;28;21037;-75
2022/04/27 10:19:10;;;;;;;27.50;25.80;;;16.30;60.60;;;;;;5093222;28;20469;-75
2022/04/27 10:21:43;;;;;;;27.90;26.20;;;16.10;60.80;;;;;;5093562;28;20951;-74
2022/04/27 10:24:11;;;;;;;26.60;25.07;;;16.10;61.40;;;;;;5092816;28;20470;-75
2022/04/27 10:26:39;;;;;;;27.40;25.87;;;16.00;61.70;;;;;;5093407;28;20500;-75
2022/04/27 10:29:08;;;;;;;27.30;25.70;;;16.00;61.40;;;;;;5093109;28;20445;-75
2022/04/27 10:32:02;;;;;;;27.83;26.23;;;16.30;60.70;;;;;;5093406;28;20922;-75
2022/04/27 10:34:29;;;;;;;27.67;26.07;;;16.40;60.40;;;;;;5093298;28;20473;-75
2022/04/27 10:36:57;;;;;;;27.33;25.73;;;16.40;60.60;;;;;;5093335;28;20493;-74
2022/04/27 10:39:26;;;;;;;27.17;25.57;;;16.40;60.90;;;;;;5092597;28;21084;-74
2022/04/27 10:42:12;;;;;;;27.23;25.70;;;16.40;60.90;;;;;;5093094;28;20541;-74
2022/04/27 10:45:10;;;;;;;31.30;29.50;;;16.70;59.60;;;;;;5093172;28;20469;-75
2022/04/27 10:47:47;;;;;;;29.23;27.43;;;16.90;59.50;;;;;;5093233;28;20446;-75
2022/04/27 10:50:23;;;;;;;28.77;26.87;;;16.70;59.40;;;;;;5092512;28;20880;-75
2022/04/27 10:52:52;;;;;;;27.50;25.90;;;17.00;60.10;;;;;;5093342;28;20451;-75
2022/04/27 10:55:43;;;;;;;28.37;26.67;;;17.50;59.40;;;;;;5092925;28;20958;-75
2022/04/27 10:58:19;;;;;;;26.20;24.70;;;17.50;58.50;;;;;;5090345;28;20465;-75
2022/04/27 11:01:25;;;;;;;30.47;28.37;;;17.60;58.80;;;;;;5092328;28;20540;-75
2022/04/27 11:04:09;;;;;;;28.37;26.67;;;17.80;57.90;;;;;;5093043;28;20505;-74
2022/04/27 11:07:15;;;;;;;27.17;25.57;;;17.60;58.10;;;;;;5092849;28;20540;-75
2022/04/27 11:10:14;;;;;;;27.17;25.57;;;17.40;58.90;;;;;;5067087;28;20449;-75
2022/04/27 11:12:43;;;;;;;27.37;25.77;;;17.60;58.80;;;;;;5092829;28;20450;-74
2022/04/27 11:15:12;;;;;;;26.70;25.10;;;18.00;58.70;;;;;;5092888;28;20854;-75
2022/04/27 11:17:40;;;;;;;27.00;25.40;;;18.30;57.10;;;;;;5092667;28;20515;-74
2022/04/27 11:20:26;;;;;;;30.20;28.30;;;18.40;56.10;;;;;;5091893;28;20473;-74
2022/04/27 11:22:54;;;;;;;27.50;25.87;;;18.30;56.70;;;;;;5092605;28;20453;-74
2022/04/27 11:25:25;;;;;;;27.97;26.07;;;18.10;56.60;;;;;;5092120;28;20561;-74
2022/04/27 11:27:52;;;;;;;27.77;26.07;;;18.30;57.10;;;;;;5092532;28;20545;-74
2022/04/27 11:30:20;;;;;;;27.80;26.13;;;18.20;57.60;;;;;;5091739;28;20453;-74
2022/04/27 11:32:48;;;;;;;27.40;25.80;;;17.90;56.80;;;;;;5092968;28;20540;-74
2022/04/27 11:35:17;;;;;;;27.90;26.20;;;17.30;58.40;;;;;;5092539;28;20846;-74
2022/04/27 11:37:44;;;;;;;28.30;26.00;;;17.30;58.90;;;;;;5092888;28;20457;-74
2022/04/27 11:40:13;;;;;;;28.33;26.63;;;17.20;58.70;;;;;;5091508;28;20477;-74
2022/04/27 11:42:43;;;;;;;27.97;26.27;;;17.30;58.30;;;;;;5092430;28;20449;-74
2022/04/27 11:45:12;;;;;;;27.40;25.80;;;17.30;58.20;;;;;;5092158;28;20454;-74
2022/04/27 11:47:39;;;;;;;26.40;24.90;;;17.90;57.50;;;;;;5092195;28;20478;-74
2022/04/27 11:50:07;;;;;;;27.80;26.20;;;18.50;57.00;;;;;;5091556;28;20495;-74
2022/04/27 11:52:37;;;;;;;28.80;27.03;;;18.80;56.20;;;;;;5092298;28;20546;-75
2022/04/27 11:55:11;;;;;;;27.63;26.03;;;18.60;55.50;;;;;;5092081;28;20620;-75
2022/04/27 11:57:39;;;;;;;28.40;26.70;;;18.90;55.60;;;;;;5092108;28;20798;-74
2022/04/27 12:00:09;;;;;;;28.00;26.43;;;19.00;55.10;;;;;;5091407;28;20473;-74
2022/04/27 12:02:36;;;;;;;30.23;28.50;;;18.60;54.30;;;;;;5091967;28;20506;-74
2022/04/27 12:05:06;;;;;;;28.20;26.50;;;18.20;54.90;;;;;;5092183;28;20833;-74
2022/04/27 12:07:37;;;;;;;28.90;27.20;;;18.40;55.00;;;;;;5092019;28;20485;-74
2022/04/27 12:10:09;;;;;;;26.80;25.30;;;18.70;54.60;;;;;;5091677;28;20446;-74
2022/04/27 12:12:39;;;;;;;28.80;26.80;;;18.80;54.30;;;;;;5092052;28;20453;-74
2022/04/27 12:15:11;;;;;;;27.83;26.23;;;18.80;54.10;;;;;;5092021;28;20473;-74
2022/04/27 12:17:48;;;;;;;28.07;26.37;;;19.00;54.60;;;;;;5091966;28;20460;-74
2022/04/27 12:20:43;;;;;;;28.20;26.60;;;19.30;53.30;;;;;;5091226;28;20831;-74
2022/04/27 12:23:13;;;;;;;28.43;26.73;;;18.70;53.10;;;;;;5091927;28;20553;-74
2022/04/27 12:25:42;;;;;;;29.23;27.33;;;18.60;54.60;;;;;;5091419;28;20464;-74
2022/04/27 12:28:13;;;;;;;29.10;27.40;;;18.80;54.20;;;;;;5091902;28;20445;-74
2022/04/27 12:30:44;;;;;;;28.03;26.43;;;18.50;54.30;;;;;;5091418;28;20503;-74
2022/04/27 12:33:13;;;;;;;30.07;28.30;;;18.70;54.30;;;;;;5091597;28;20549;-74
2022/04/27 12:38:29;;;;;;;27.97;26.37;;;19.20;53.80;;;;;;5091689;28;20893;-74
2022/04/27 12:40:56;;;;;;;28.20;26.50;;;19.50;52.50;;;;;;5090972;28;20457;-74
2022/04/27 12:43:24;;;;;;;31.10;29.30;;;19.40;52.70;;;;;;5091777;28;20889;-74
2022/04/27 12:46:09;;;;;;;30.40;28.60;;;19.50;52.60;;;;;;5091633;28;20454;-74
2022/04/27 12:48:37;;;;;;;29.17;27.50;;;19.50;52.80;;;;;;5093966;28;20503;-74
2022/04/27 12:51:05;;;;;;;28.90;27.17;;;19.60;51.90;;;;;;5094853;28;20453;-74
2022/04/27 12:53:34;;;;;;;29.20;27.50;;;19.50;51.30;;;;;;5095096;28;20469;-74
2022/04/27 12:56:09;;;;;;;28.90;27.20;;;18.90;52.50;;;;;;5095891;28;20488;-74
2022/04/27 12:58:37;;;;;;;27.90;26.30;;;19.10;53.40;;;;;;5095959;28;20956;-74
2022/04/27 13:01:04;;;;;;;29.70;28.00;;;19.00;53.70;;;;;;5098817;28;20994;-74